sensor_id;sensor_type;location;lat;lon;timestamp;pressure;altitude;pressure_sealevel;temperature;humidity
39301;BME280;25019;42.626;23.380;2022-09-09T00:09:39;94636.84;;;16.76;97.91
39301;BME280;25019;42.626;23.380;2022-09-09T00:12:14;94591.59;;;16.35;99.17
39301;BME280;25019;42.626;23.380;2022-09-09T00:14:51;94655.38;;;16.72;99.43
39301;BME280;25019;42.626;23.380;2022-09-09T00:17:33;94660.22;;;16.70;99.32
39301;BME280;25019;42.626;23.380;2022-09-09T00:22:56;94655.97;;;16.64;98.59
39301;BME280;25019;42.626;23.380;2022-09-09T00:28:17;94641.53;;;16.60;97.85
39301;BME280;25019;42.626;23.380;2022-09-09T00:30:43;94636.16;;;16.60;97.77
39301;BME280;25019;42.626;23.380;2022-09-09T00:33:13;94631.88;;;16.59;97.36
39301;BME280;25019;42.626;23.380;2022-09-09T00:35:51;94633.25;;;16.56;97.42
39301;BME280;25019;42.626;23.380;2022-09-09T00:38:27;94631.41;;;16.52;97.63
39301;BME280;25019;42.626;23.380;2022-09-09T00:43:39;94560.97;;;16.06;97.68
39301;BME280;25019;42.626;23.380;2022-09-09T00:48:52;94504.72;;;15.66;98.12
39301;BME280;25019;42.626;23.380;2022-09-09T00:51:44;94614.38;;;16.32;98.79
39301;BME280;25019;42.626;23.380;2022-09-09T01:11:26;94568.25;;;16.00;98.52
39301;BME280;25019;42.626;23.380;2022-09-09T01:14:24;94520.25;;;15.64;98.57
39301;BME280;25019;42.626;23.380;2022-09-09T01:17:00;94568.56;;;15.94;98.79
39301;BME280;25019;42.626;23.380;2022-09-09T01:28:01;94617.06;;;16.32;98.63
39301;BME280;25019;42.626;23.380;2022-09-09T01:30:37;94614.91;;;16.34;98.71
39301;BME280;25019;42.626;23.380;2022-09-09T01:33:03;94603.97;;;16.30;98.72
39301;BME280;25019;42.626;23.380;2022-09-09T01:37:59;94619.19;;;16.35;98.50
39301;BME280;25019;42.626;23.380;2022-09-09T01:40:26;94590.72;;;16.10;98.35
39301;BME280;25019;42.626;23.380;2022-09-09T01:42:53;94636.88;;;16.36;98.55
39301;BME280;25019;42.626;23.380;2022-09-09T01:45:20;94629.91;;;16.35;98.14
39301;BME280;25019;42.626;23.380;2022-09-09T01:47:47;94629.16;;;16.29;98.18
39301;BME280;25019;42.626;23.380;2022-09-09T01:50:42;94637.19;;;16.29;98.71
39301;BME280;25019;42.626;23.380;2022-09-09T01:53:10;94633.72;;;16.29;99.10
39301;BME280;25019;42.626;23.380;2022-09-09T01:55:39;94602.53;;;16.03;99.42
39301;BME280;25019;42.626;23.380;2022-09-09T02:01:13;94612.66;;;16.12;99.05
39301;BME280;25019;42.626;23.380;2022-09-09T02:03:47;94635.91;;;16.22;99.21
39301;BME280;25019;42.626;23.380;2022-09-09T02:08:50;94622.31;;;16.13;98.95
39301;BME280;25019;42.626;23.380;2022-09-09T02:11:19;94555.53;;;15.77;99.31
39301;BME280;25019;42.626;23.380;2022-09-09T02:14:07;94594.31;;;15.84;100.00
39301;BME280;25019;42.626;23.380;2022-09-09T02:19:32;94620.19;;;16.10;100.00
39301;BME280;25019;42.626;23.380;2022-09-09T02:22:22;94626.63;;;16.09;100.00
39301;BME280;25019;42.626;23.380;2022-09-09T02:24:51;94540.59;;;15.65;100.00
39301;BME280;25019;42.626;23.380;2022-09-09T02:27:23;94600.34;;;16.11;99.68
39301;BME280;25019;42.626;23.380;2022-09-09T02:29:51;94590.75;;;16.05;99.43
39301;BME280;25019;42.626;23.380;2022-09-09T02:32:28;94599.00;;;16.08;100.00
39301;BME280;25019;42.626;23.380;2022-09-09T02:35:01;94613.44;;;16.12;100.00
39301;BME280;25019;42.626;23.380;2022-09-09T02:37:38;94614.00;;;16.09;100.00
39301;BME280;25019;42.626;23.380;2022-09-09T02:40:06;94620.72;;;16.07;100.00
39301;BME280;25019;42.626;23.380;2022-09-09T02:42:47;94627.44;;;16.04;100.00
39301;BME280;25019;42.626;23.380;2022-09-09T02:45:20;94622.34;;;16.02;100.00
39301;BME280;25019;42.626;23.380;2022-09-09T02:47:59;94561.75;;;15.62;100.00
39301;BME280;25019;42.626;23.380;2022-09-09T02:50:48;94613.34;;;15.83;100.00
39301;BME280;25019;42.626;23.380;2022-09-09T02:53:17;94574.41;;;15.51;100.00
39301;BME280;25019;42.626;23.380;2022-09-09T02:56:09;94635.28;;;15.85;100.00
39301;BME280;25019;42.626;23.380;2022-09-09T02:58:37;94643.59;;;15.88;100.00
39301;BME280;25019;42.626;23.380;2022-09-09T03:01:05;94522.63;;;15.16;100.00
39301;BME280;25019;42.626;23.380;2022-09-09T03:03:31;94572.50;;;15.51;100.00
39301;BME280;25019;42.626;23.380;2022-09-09T03:05:59;94609.31;;;15.80;100.00
39301;BME280;25019;42.626;23.380;2022-09-09T03:08:26;94628.81;;;15.96;100.00
39301;BME280;25019;42.626;23.380;2022-09-09T03:10:54;94581.56;;;15.66;100.00
39301;BME280;25019;42.626;23.380;2022-09-09T03:13:20;94632.56;;;15.95;100.00
39301;BME280;25019;42.626;23.380;2022-09-09T03:15:47;94573.03;;;15.58;100.00
39301;BME280;25019;42.626;23.380;2022-09-09T03:18:16;94637.66;;;15.97;100.00
39301;BME280;25019;42.626;23.380;2022-09-09T03:20:43;94639.53;;;15.96;100.00
39301;BME280;25019;42.626;23.380;2022-09-09T03:23:09;94608.56;;;15.75;100.00
39301;BME280;25019;42.626;23.380;2022-09-09T03:25:35;94577.03;;;15.61;100.00
39301;BME280;25019;42.626;23.380;2022-09-09T03:28:01;94638.72;;;16.01;100.00
39301;BME280;25019;42.626;23.380;2022-09-09T03:30:28;94636.03;;;16.01;100.00
39301;BME280;25019;42.626;23.380;2022-09-09T03:32:55;94640.31;;;16.02;100.00
39301;BME280;25019;42.626;23.380;2022-09-09T03:35:25;94641.91;;;16.03;100.00
39301;BME280;25019;42.626;23.380;2022-09-09T03:37:51;94642.19;;;16.01;100.00
39301;BME280;25019;42.626;23.380;2022-09-09T03:40:17;94621.06;;;15.95;100.00
39301;BME280;25019;42.626;23.380;2022-09-09T03:42:45;94641.41;;;15.96;100.00
39301;BME280;25019;42.626;23.380;2022-09-09T03:45:11;94650.84;;;15.88;100.00
39301;BME280;25019;42.626;23.380;2022-09-09T03:47:38;94645.19;;;15.84;100.00
39301;BME280;25019;42.626;23.380;2022-09-09T03:50:06;94636.91;;;15.81;100.00
39301;BME280;25019;42.626;23.380;2022-09-09T03:52:40;94652.69;;;15.77;100.00
39301;BME280;25019;42.626;23.380;2022-09-09T03:55:12;94571.53;;;15.26;100.00
39301;BME280;25019;42.626;23.380;2022-09-09T03:57:37;94617.75;;;15.53;100.00
39301;BME280;25019;42.626;23.380;2022-09-09T04:00:08;94600.94;;;15.37;100.00
39301;BME280;25019;42.626;23.380;2022-09-09T04:02:44;94630.06;;;15.59;100.00
39301;BME280;25019;42.626;23.380;2022-09-09T04:05:13;94645.28;;;15.64;100.00
39301;BME280;25019;42.626;23.380;2022-09-09T04:07:41;94646.88;;;15.70;100.00
39301;BME280;25019;42.626;23.380;2022-09-09T04:10:08;94651.69;;;15.73;100.00
39301;BME280;25019;42.626;23.380;2022-09-09T04:12:36;94665.06;;;15.73;100.00
39301;BME280;25019;42.626;23.380;2022-09-09T04:15:02;94657.28;;;15.77;100.00
39301;BME280;25019;42.626;23.380;2022-09-09T04:17:28;94658.03;;;15.82;100.00
39301;BME280;25019;42.626;23.380;2022-09-09T04:19:54;94580.31;;;15.48;100.00
39301;BME280;25019;42.626;23.380;2022-09-09T04:22:21;94648.59;;;16.06;100.00
39301;BME280;25019;42.626;23.380;2022-09-09T04:24:48;94638.06;;;16.20;100.00
39301;BME280;25019;42.626;23.380;2022-09-09T04:27:14;94642.03;;;16.27;100.00
39301;BME280;25019;42.626;23.380;2022-09-09T04:29:40;94578.94;;;16.06;100.00
39301;BME280;25019;42.626;23.380;2022-09-09T04:32:06;94638.50;;;16.72;100.00
39301;BME280;25019;42.626;23.380;2022-09-09T04:34:32;94641.25;;;16.96;100.00
39301;BME280;25019;42.626;23.380;2022-09-09T04:36:58;94642.03;;;17.26;98.44
39301;BME280;25019;42.626;23.380;2022-09-09T04:39:26;94638.81;;;17.54;94.99
39301;BME280;25019;42.626;23.380;2022-09-09T04:41:52;94577.53;;;17.36;92.46
39301;BME280;25019;42.626;23.380;2022-09-09T04:44:19;94645.69;;;18.08;89.64
39301;BME280;25019;42.626;23.380;2022-09-09T04:46:46;94655.69;;;18.03;88.36
39301;BME280;25019;42.626;23.380;2022-09-09T04:49:12;94658.94;;;18.00;87.67
39301;BME280;25019;42.626;23.380;2022-09-09T04:51:37;94610.47;;;17.66;87.51
39301;BME280;25019;42.626;23.380;2022-09-09T04:54:04;94648.75;;;17.96;87.36
39301;BME280;25019;42.626;23.380;2022-09-09T04:56:31;94629.19;;;18.15;86.88
39301;BME280;25019;42.626;23.380;2022-09-09T04:58:58;94615.69;;;18.20;85.32
39301;BME280;25019;42.626;23.380;2022-09-09T05:01:34;94625.66;;;18.72;83.62
39301;BME280;25019;42.626;23.380;2022-09-09T05:04:03;94629.94;;;19.06;81.33
39301;BME280;25019;42.626;23.380;2022-09-09T05:06:31;94548.84;;;18.94;78.80
39301;BME280;25019;42.626;23.380;2022-09-09T05:08:59;94617.91;;;19.73;76.33
39301;BME280;25019;42.626;23.380;2022-09-09T05:11:30;94616.91;;;19.97;74.06
39301;BME280;25019;42.626;23.380;2022-09-09T05:14:25;94612.81;;;20.36;72.12
39301;BME280;25019;42.626;23.380;2022-09-09T05:16:51;94615.72;;;20.63;70.58
39301;BME280;25019;42.626;23.380;2022-09-09T05:19:17;94575.41;;;20.66;69.24
39301;BME280;25019;42.626;23.380;2022-09-09T05:21:48;94586.56;;;20.97;67.35
39301;BME280;25019;42.626;23.380;2022-09-09T05:24:17;94618.09;;;21.50;65.68
39301;BME280;25019;42.626;23.380;2022-09-09T05:26:44;94600.22;;;21.63;65.12
39301;BME280;25019;42.626;23.380;2022-09-09T05:29:10;94598.69;;;21.39;65.96
39301;BME280;25019;42.626;23.380;2022-09-09T05:31:36;94607.84;;;21.30;66.54
39301;BME280;25019;42.626;23.380;2022-09-09T05:34:07;94609.53;;;21.17;66.52
39301;BME280;25019;42.626;23.380;2022-09-09T05:36:33;94580.81;;;20.89;66.60
39301;BME280;25019;42.626;23.380;2022-09-09T05:38:59;94607.22;;;21.01;66.31
39301;BME280;25019;42.626;23.380;2022-09-09T05:41:27;94506.59;;;20.24;67.38
39301;BME280;25019;42.626;23.380;2022-09-09T05:43:56;94577.06;;;20.54;68.39
39301;BME280;25019;42.626;23.380;2022-09-09T05:46:23;94584.25;;;20.35;67.80
39301;BME280;25019;42.626;23.380;2022-09-09T05:48:52;94608.56;;;20.44;68.08
39301;BME280;25019;42.626;23.380;2022-09-09T05:51:24;94619.03;;;20.23;69.08
39301;BME280;25019;42.626;23.380;2022-09-09T05:53:50;94586.88;;;19.90;68.82
39301;BME280;25019;42.626;23.380;2022-09-09T05:56:23;94628.84;;;20.19;69.22
39301;BME280;25019;42.626;23.380;2022-09-09T05:58:51;94599.34;;;20.00;70.67
39301;BME280;25019;42.626;23.380;2022-09-09T06:01:28;94575.50;;;19.93;69.78
39301;BME280;25019;42.626;23.380;2022-09-09T06:03:55;94525.84;;;19.43;69.53
39301;BME280;25019;42.626;23.380;2022-09-09T06:06:24;94636.00;;;20.24;69.30
39301;BME280;25019;42.626;23.380;2022-09-09T06:08:55;94630.72;;;20.18;68.63
39301;BME280;25019;42.626;23.380;2022-09-09T06:11:29;94638.59;;;20.29;67.62
39301;BME280;25019;42.626;23.380;2022-09-09T06:13:59;94627.47;;;20.08;67.93
39301;BME280;25019;42.626;23.380;2022-09-09T06:16:27;94633.47;;;20.04;67.86
39301;BME280;25019;42.626;23.380;2022-09-09T06:18:54;94619.59;;;19.69;68.87
39301;BME280;25019;42.626;23.380;2022-09-09T06:21:27;94636.34;;;19.80;68.83
39301;BME280;25019;42.626;23.380;2022-09-09T06:23:54;94618.41;;;19.75;68.30
39301;BME280;25019;42.626;23.380;2022-09-09T06:26:34;94624.69;;;19.85;69.31
39301;BME280;25019;42.626;23.380;2022-09-09T06:29:02;94580.81;;;19.42;69.66
39301;BME280;25019;42.626;23.380;2022-09-09T06:31:31;94641.97;;;19.98;69.32
39301;BME280;25019;42.626;23.380;2022-09-09T06:34:01;94635.47;;;19.99;69.71
39301;BME280;25019;42.626;23.380;2022-09-09T06:36:30;94640.28;;;19.88;69.91
39301;BME280;25019;42.626;23.380;2022-09-09T06:38:58;94569.25;;;19.28;70.52
39301;BME280;25019;42.626;23.380;2022-09-09T06:41:28;94558.56;;;19.37;69.95
39301;BME280;25019;42.626;23.380;2022-09-09T06:43:56;94545.78;;;19.42;69.55
39301;BME280;25019;42.626;23.380;2022-09-09T06:46:30;94632.38;;;19.91;69.58
39301;BME280;25019;42.626;23.380;2022-09-09T06:48:59;94569.72;;;19.58;69.41
39301;BME280;25019;42.626;23.380;2022-09-09T06:51:33;94558.53;;;19.65;69.46
39301;BME280;25019;42.626;23.380;2022-09-09T06:54:03;94631.34;;;20.15;68.16
39301;BME280;25019;42.626;23.380;2022-09-09T06:56:38;94585.03;;;19.99;68.11
39301;BME280;25019;42.626;23.380;2022-09-09T06:59:10;94625.84;;;20.20;67.73
39301;BME280;25019;42.626;23.380;2022-09-09T07:01:39;94587.94;;;20.03;67.49
39301;BME280;25019;42.626;23.380;2022-09-09T07:04:15;94608.81;;;19.97;68.73
39301;BME280;25019;42.626;23.380;2022-09-09T07:06:44;94638.94;;;20.13;69.24
39301;BME280;25019;42.626;23.380;2022-09-09T07:09:15;94652.59;;;20.31;68.68
39301;BME280;25019;42.626;23.380;2022-09-09T07:11:50;94624.91;;;20.25;67.11
39301;BME280;25019;42.626;23.380;2022-09-09T07:14:20;94602.19;;;20.17;66.95
39301;BME280;25019;42.626;23.380;2022-09-09T07:16:52;94556.94;;;20.14;65.69
39301;BME280;25019;42.626;23.380;2022-09-09T07:19:18;94612.09;;;20.68;67.04
39301;BME280;25019;42.626;23.380;2022-09-09T07:21:46;94628.78;;;20.70;66.23
39301;BME280;25019;42.626;23.380;2022-09-09T07:24:16;94627.25;;;20.77;65.94
39301;BME280;25019;42.626;23.380;2022-09-09T07:26:42;94630.81;;;20.87;65.78
39301;BME280;25019;42.626;23.380;2022-09-09T07:29:10;94621.16;;;20.94;65.86
39301;BME280;25019;42.626;23.380;2022-09-09T07:31:41;94567.31;;;20.66;65.23
39301;BME280;25019;42.626;23.380;2022-09-09T07:34:11;94622.97;;;21.08;65.35
39301;BME280;25019;42.626;23.380;2022-09-09T07:36:40;94606.28;;;21.06;64.94
39301;BME280;25019;42.626;23.380;2022-09-09T07:39:11;94575.19;;;21.08;64.33
39301;BME280;25019;42.626;23.380;2022-09-09T07:41:43;94605.06;;;21.44;63.77
39301;BME280;25019;42.626;23.380;2022-09-09T07:44:12;94631.19;;;21.66;64.43
39301;BME280;25019;42.626;23.380;2022-09-09T07:46:40;94617.41;;;21.76;62.97
39301;BME280;25019;42.626;23.380;2022-09-09T07:49:08;94634.50;;;22.03;61.37
39301;BME280;25019;42.626;23.380;2022-09-09T07:51:37;94639.44;;;22.19;61.36
39301;BME280;25019;42.626;23.380;2022-09-09T07:54:06;94641.03;;;22.20;59.69
39301;BME280;25019;42.626;23.380;2022-09-09T07:56:33;94620.00;;;22.08;59.37
39301;BME280;25019;42.626;23.380;2022-09-09T07:59:00;94637.53;;;22.28;58.59
39301;BME280;25019;42.626;23.380;2022-09-09T08:01:38;94631.16;;;22.33;58.57
39301;BME280;25019;42.626;23.380;2022-09-09T08:04:08;94618.91;;;22.18;58.95
39301;BME280;25019;42.626;23.380;2022-09-09T08:06:37;94582.00;;;22.04;60.24
39301;BME280;25019;42.626;23.380;2022-09-09T08:09:05;94628.03;;;22.57;58.47
39301;BME280;25019;42.626;23.380;2022-09-09T08:11:32;94569.59;;;22.38;58.66
39301;BME280;25019;42.626;23.380;2022-09-09T08:14:00;94621.16;;;22.86;57.06
39301;BME280;25019;42.626;23.380;2022-09-09T08:16:28;94628.59;;;23.07;57.33
39301;BME280;25019;42.626;23.380;2022-09-09T08:18:56;94543.16;;;22.70;55.78
39301;BME280;25019;42.626;23.380;2022-09-09T08:21:25;94633.78;;;23.47;54.86
39301;BME280;25019;42.626;23.380;2022-09-09T08:23:55;94625.00;;;23.50;54.87
39301;BME280;25019;42.626;23.380;2022-09-09T08:26:26;94624.47;;;23.57;53.73
39301;BME280;25019;42.626;23.380;2022-09-09T08:28:55;94615.13;;;23.75;53.59
39301;BME280;25019;42.626;23.380;2022-09-09T08:31:31;94585.00;;;23.77;52.12
39301;BME280;25019;42.626;23.380;2022-09-09T08:33:58;94627.16;;;24.26;51.90
39301;BME280;25019;42.626;23.380;2022-09-09T08:36:31;94620.84;;;24.55;51.00
39301;BME280;25019;42.626;23.380;2022-09-09T08:39:02;94552.88;;;24.30;50.08
39301;BME280;25019;42.626;23.380;2022-09-09T08:50:27;94612.75;;;25.22;48.54
39301;BME280;25019;42.626;23.380;2022-09-09T08:58:25;94602.22;;;25.21;48.52
39301;BME280;25019;42.626;23.380;2022-09-09T09:12:24;94609.97;;;25.43;47.14
39301;BME280;25019;42.626;23.380;2022-09-09T09:14:54;94507.38;;;24.82;47.36
39301;BME280;25019;42.626;23.380;2022-09-09T09:17:26;94496.56;;;24.94;46.79
39301;BME280;25019;42.626;23.380;2022-09-09T09:19:53;94606.81;;;25.91;47.13
39301;BME280;25019;42.626;23.380;2022-09-09T09:22:25;94608.84;;;25.69;46.96
39301;BME280;25019;42.626;23.380;2022-09-09T09:27:48;94486.25;;;25.25;47.06
39301;BME280;25019;42.626;23.380;2022-09-09T09:30:19;94595.00;;;25.87;46.33
39301;BME280;25019;42.626;23.380;2022-09-09T09:33:15;94609.41;;;26.12;45.92
39301;BME280;25019;42.626;23.380;2022-09-09T09:35:42;94607.69;;;26.32;45.73
39301;BME280;25019;42.626;23.380;2022-09-09T09:38:25;94589.63;;;26.40;45.38
39301;BME280;25019;42.626;23.380;2022-09-09T09:40:57;94608.06;;;26.59;44.85
39301;BME280;25019;42.626;23.380;2022-09-09T09:45:57;94604.19;;;26.07;45.84
39301;BME280;25019;42.626;23.380;2022-09-09T09:48:25;94538.78;;;25.91;45.24
39301;BME280;25019;42.626;23.380;2022-09-09T09:51:08;94578.84;;;26.72;44.62
39301;BME280;25019;42.626;23.380;2022-09-09T09:53:37;94565.72;;;27.06;43.63
39301;BME280;25019;42.626;23.380;2022-09-09T09:56:10;94561.69;;;27.32;43.45
39301;BME280;25019;42.626;23.380;2022-09-09T10:03:51;94570.66;;;26.72;44.97
39301;BME280;25019;42.626;23.380;2022-09-09T10:08:58;94543.41;;;27.17;43.39
39301;BME280;25019;42.626;23.380;2022-09-09T10:11:33;94576.31;;;27.24;43.38
39301;BME280;25019;42.626;23.380;2022-09-09T10:16:52;94579.31;;;26.90;44.36
39301;BME280;25019;42.626;23.380;2022-09-09T10:19:54;94575.06;;;26.89;44.73
39301;BME280;25019;42.626;23.380;2022-09-09T10:22:30;94562.13;;;26.74;45.10
39301;BME280;25019;42.626;23.380;2022-09-09T10:30:26;94582.38;;;27.01;45.06
39301;BME280;25019;42.626;23.380;2022-09-09T10:33:08;94581.06;;;27.11;44.03
39301;BME280;25019;42.626;23.380;2022-09-09T10:46:49;94571.97;;;26.09;46.41
39301;BME280;25019;42.626;23.380;2022-09-09T11:00:10;94570.06;;;26.22;46.68
39301;BME280;25019;42.626;23.380;2022-09-09T11:02:40;94535.06;;;25.83;47.26
39301;BME280;25019;42.626;23.380;2022-09-09T11:05:17;94576.41;;;26.14;47.42
39301;BME280;25019;42.626;23.380;2022-09-09T11:07:49;94578.34;;;26.01;46.96
39301;BME280;25019;42.626;23.380;2022-09-09T11:10:26;94596.25;;;26.02;47.83
39301;BME280;25019;42.626;23.380;2022-09-09T11:13:00;94542.00;;;25.56;47.57
39301;BME280;25019;42.626;23.380;2022-09-09T11:15:41;94586.53;;;25.88;47.31
39301;BME280;25019;42.626;23.380;2022-09-09T11:18:16;94581.19;;;25.80;47.40
39301;BME280;25019;42.626;23.380;2022-09-09T11:20:44;94593.31;;;25.95;47.19
39301;BME280;25019;42.626;23.380;2022-09-09T11:23:27;94584.69;;;26.05;47.72
39301;BME280;25019;42.626;23.380;2022-09-09T11:26:01;94585.09;;;26.32;47.93
39301;BME280;25019;42.626;23.380;2022-09-09T11:31:46;94577.44;;;26.50;47.04
39301;BME280;25019;42.626;23.380;2022-09-09T11:37:23;94556.66;;;26.29;46.73
39301;BME280;25019;42.626;23.380;2022-09-09T11:42:48;94546.47;;;26.14;47.55
39301;BME280;25019;42.626;23.380;2022-09-09T11:47:57;94532.53;;;26.15;47.72
39301;BME280;25019;42.626;23.380;2022-09-09T11:52:49;94523.63;;;26.31;47.94
39301;BME280;25019;42.626;23.380;2022-09-09T11:55:29;94480.25;;;26.10;48.04
39301;BME280;25019;42.626;23.380;2022-09-09T11:58:03;94490.06;;;26.27;48.30
39301;BME280;25019;42.626;23.380;2022-09-09T12:00:34;94497.31;;;26.35;48.16
39301;BME280;25019;42.626;23.380;2022-09-09T12:03:00;94500.03;;;26.35;48.28
39301;BME280;25019;42.626;23.380;2022-09-09T12:05:37;94488.78;;;26.37;47.75
39301;BME280;25019;42.626;23.380;2022-09-09T12:08:05;94499.25;;;26.35;47.77
39301;BME280;25019;42.626;23.380;2022-09-09T12:10:35;94516.75;;;26.50;47.85
39301;BME280;25019;42.626;23.380;2022-09-09T12:13:21;94433.44;;;26.04;47.49
39301;BME280;25019;42.626;23.380;2022-09-09T12:15:50;94505.53;;;26.51;47.47
39301;BME280;25019;42.626;23.380;2022-09-09T12:18:23;94494.50;;;26.31;47.25
39301;BME280;25019;42.626;23.380;2022-09-09T12:21:02;94503.25;;;26.53;47.29
39301;BME280;25019;42.626;23.380;2022-09-09T12:31:44;94432.47;;;26.25;47.46
39301;BME280;25019;42.626;23.380;2022-09-09T12:34:30;94484.97;;;26.70;46.87
39301;BME280;25019;42.626;23.380;2022-09-09T12:37:00;94474.63;;;26.59;46.59
39301;BME280;25019;42.626;23.380;2022-09-09T12:39:38;94471.63;;;26.65;47.05
39301;BME280;25019;42.626;23.380;2022-09-09T12:42:17;94452.56;;;26.65;47.49
39301;BME280;25019;42.626;23.380;2022-09-09T12:44:53;94471.88;;;26.43;47.15
39301;BME280;25019;42.626;23.380;2022-09-09T12:47:21;94466.59;;;26.51;47.59
39301;BME280;25019;42.626;23.380;2022-09-09T12:49:49;94476.38;;;26.68;47.33
39301;BME280;25019;42.626;23.380;2022-09-09T12:54:52;94452.31;;;26.70;46.52
39301;BME280;25019;42.626;23.380;2022-09-09T12:57:19;94467.28;;;26.92;46.82
39301;BME280;25019;42.626;23.380;2022-09-09T12:59:47;94429.78;;;26.85;46.47
39301;BME280;25019;42.626;23.380;2022-09-09T13:02:26;94415.41;;;26.56;46.85
39301;BME280;25019;42.626;23.380;2022-09-09T13:04:53;94451.47;;;26.82;46.60
39301;BME280;25019;42.626;23.380;2022-09-09T13:07:20;94457.25;;;26.80;47.01
39301;BME280;25019;42.626;23.380;2022-09-09T13:09:48;94451.16;;;26.71;48.07
39301;BME280;25019;42.626;23.380;2022-09-09T13:12:17;94446.63;;;26.91;47.11
39301;BME280;25019;42.626;23.380;2022-09-09T13:14:46;94342.47;;;26.50;47.04
39301;BME280;25019;42.626;23.380;2022-09-09T13:17:26;94433.22;;;27.34;45.84
39301;BME280;25019;42.626;23.380;2022-09-09T13:19:55;94437.53;;;27.35;46.22
39301;BME280;25019;42.626;23.380;2022-09-09T13:22:36;94422.34;;;27.18;46.48
39301;BME280;25019;42.626;23.380;2022-09-09T13:25:24;94431.03;;;27.24;46.31
39301;BME280;25019;42.626;23.380;2022-09-09T13:28:00;94434.88;;;27.39;46.02
39301;BME280;25019;42.626;23.380;2022-09-09T13:30:36;94430.13;;;27.35;46.31
39301;BME280;25019;42.626;23.380;2022-09-09T13:38:15;94412.28;;;26.86;46.60
39301;BME280;25019;42.626;23.380;2022-09-09T13:40:52;94406.53;;;26.59;47.45
39301;BME280;25019;42.626;23.380;2022-09-09T13:43:22;94416.34;;;26.48;48.08
39301;BME280;25019;42.626;23.380;2022-09-09T13:45:57;94424.16;;;26.50;48.28
39301;BME280;25019;42.626;23.380;2022-09-09T13:48:23;94421.84;;;26.20;48.59
39301;BME280;25019;42.626;23.380;2022-09-09T13:51:00;94406.31;;;26.08;49.13
39301;BME280;25019;42.626;23.380;2022-09-09T13:53:26;94401.78;;;26.12;49.53
39301;BME280;25019;42.626;23.380;2022-09-09T13:55:53;94397.69;;;26.18;49.84
39301;BME280;25019;42.626;23.380;2022-09-09T13:58:19;94395.00;;;26.34;49.51
39301;BME280;25019;42.626;23.380;2022-09-09T14:00:45;94341.56;;;25.97;49.10
39301;BME280;25019;42.626;23.380;2022-09-09T14:03:12;94402.53;;;25.96;49.66
39301;BME280;25019;42.626;23.380;2022-09-09T14:05:38;94308.94;;;25.28;50.41
39301;BME280;25019;42.626;23.380;2022-09-09T14:08:04;94402.63;;;26.00;50.04
39301;BME280;25019;42.626;23.380;2022-09-09T14:10:30;94402.69;;;25.87;49.73
39301;BME280;25019;42.626;23.380;2022-09-09T14:12:56;94360.84;;;25.92;49.54
39301;BME280;25019;42.626;23.380;2022-09-09T14:15:22;94405.16;;;26.21;49.18
39301;BME280;25019;42.626;23.380;2022-09-09T14:17:47;94413.13;;;26.42;49.14
39301;BME280;25019;42.626;23.380;2022-09-09T14:20:14;94339.13;;;25.80;49.42
39301;BME280;25019;42.626;23.380;2022-09-09T14:22:41;94393.41;;;26.17;49.79
39301;BME280;25019;42.626;23.380;2022-09-09T14:25:07;94397.38;;;26.20;49.68
39301;BME280;25019;42.626;23.380;2022-09-09T14:27:33;94395.97;;;25.97;50.24
39301;BME280;25019;42.626;23.380;2022-09-09T14:29:59;94342.75;;;25.55;50.64
39301;BME280;25019;42.626;23.380;2022-09-09T14:32:26;94394.78;;;25.82;50.54
39301;BME280;25019;42.626;23.380;2022-09-09T14:34:52;94381.50;;;25.81;50.73
39301;BME280;25019;42.626;23.380;2022-09-09T14:37:18;94381.81;;;25.92;50.78
39301;BME280;25019;42.626;23.380;2022-09-09T14:39:44;94386.53;;;25.95;51.49
39301;BME280;25019;42.626;23.380;2022-09-09T14:42:10;94378.59;;;25.73;51.47
39301;BME280;25019;42.626;23.380;2022-09-09T14:44:37;94389.31;;;25.54;52.42
39301;BME280;25019;42.626;23.380;2022-09-09T14:47:07;94392.63;;;25.35;52.44
39301;BME280;25019;42.626;23.380;2022-09-09T14:49:36;94379.59;;;25.28;52.99
39301;BME280;25019;42.626;23.380;2022-09-09T14:52:03;94377.13;;;25.10;53.46
39301;BME280;25019;42.626;23.380;2022-09-09T14:54:29;94386.19;;;25.15;53.86
39301;BME280;25019;42.626;23.380;2022-09-09T14:56:55;94367.84;;;24.99;53.71
39301;BME280;25019;42.626;23.380;2022-09-09T14:59:21;94380.22;;;24.96;54.09
39301;BME280;25019;42.626;23.380;2022-09-09T15:01:47;94377.38;;;24.80;54.65
39301;BME280;25019;42.626;23.380;2022-09-09T15:04:13;94294.41;;;24.08;54.96
39301;BME280;25019;42.626;23.380;2022-09-09T15:06:45;94385.19;;;24.82;54.75
39301;BME280;25019;42.626;23.380;2022-09-09T15:09:14;94379.75;;;24.82;54.60
39301;BME280;25019;42.626;23.380;2022-09-09T15:11:40;94396.97;;;24.98;54.38
39301;BME280;25019;42.626;23.380;2022-09-09T15:14:07;94397.75;;;24.99;54.57
39301;BME280;25019;42.626;23.380;2022-09-09T15:16:34;94400.94;;;24.89;55.02
39301;BME280;25019;42.626;23.380;2022-09-09T15:19:02;94385.53;;;24.80;54.58
39301;BME280;25019;42.626;23.380;2022-09-09T15:21:30;94400.47;;;24.87;54.53
39301;BME280;25019;42.626;23.380;2022-09-09T15:23:56;94399.13;;;24.93;54.24
39301;BME280;25019;42.626;23.380;2022-09-09T15:26:23;94367.63;;;24.67;55.25
39301;BME280;25019;42.626;23.380;2022-09-09T15:28:49;94379.88;;;24.73;55.21
39301;BME280;25019;42.626;23.380;2022-09-09T15:33:58;94403.06;;;24.95;55.18
39301;BME280;25019;42.626;23.380;2022-09-09T15:36:31;94405.56;;;25.01;55.27
39301;BME280;25019;42.626;23.380;2022-09-09T15:38:58;94397.06;;;25.02;55.37
39301;BME280;25019;42.626;23.380;2022-09-09T15:41:24;94386.19;;;25.02;55.18
39301;BME280;25019;42.626;23.380;2022-09-09T15:43:51;94397.28;;;24.97;55.16